createdAt,value
2023-09-12T00:00:08.855Z,15.27
2023-09-12T00:02:36.747Z,13.97
2023-09-12T00:05:05.613Z,14.97
2023-09-12T00:07:33.492Z,14.67
2023-09-12T00:10:01.326Z,17.13
2023-09-12T00:12:29.990Z,17.60
2023-09-12T00:14:59.355Z,17.60
2023-09-12T00:17:28.159Z,18.47
2023-09-12T00:19:56.073Z,19.03
2023-09-12T00:22:23.989Z,19.57
2023-09-12T00:24:51.852Z,17.23
2023-09-12T00:27:19.782Z,17.27
2023-09-12T00:29:47.646Z,16.97
2023-09-12T00:32:16.851Z,17.53
2023-09-12T00:34:44.942Z,19.00
2023-09-12T00:37:12.976Z,18.77
2023-09-12T00:39:40.944Z,19.00
2023-09-12T00:42:08.942Z,21.33
2023-09-12T00:44:36.805Z,20.40
2023-09-12T00:47:05.521Z,19.60
2023-09-12T00:49:36.091Z,19.87
2023-09-12T00:52:04.643Z,19.70
2023-09-12T00:54:32.838Z,19.57
2023-09-12T00:57:00.812Z,21.60
2023-09-12T00:59:29.181Z,20.40
2023-09-12T01:01:57.536Z,20.27
2023-09-12T01:04:34.939Z,19.77
2023-09-12T01:07:05.825Z,20.70
2023-09-12T01:09:33.962Z,20.80
2023-09-12T01:12:03.723Z,20.50
2023-09-12T01:14:31.832Z,20.43
2023-09-12T01:17:00.631Z,19.27
2023-09-12T01:19:28.527Z,19.33
2023-09-12T01:22:13.243Z,18.40
2023-09-12T01:25:09.677Z,17.97
2023-09-12T01:27:41.265Z,16.43
2023-09-12T01:30:10.253Z,17.63
2023-09-12T01:32:38.524Z,16.77
2023-09-12T01:35:07.292Z,18.30
2023-09-12T01:37:35.341Z,17.33
2023-09-12T01:40:04.167Z,17.47
2023-09-12T01:42:36.527Z,16.37
2023-09-12T01:45:07.129Z,16.63
2023-09-12T01:47:36.958Z,16.07
2023-09-12T01:50:05.809Z,15.83
2023-09-12T01:52:34.766Z,15.27
2023-09-12T01:55:03.742Z,15.73
2023-09-12T01:57:31.788Z,15.23
2023-09-12T01:59:59.801Z,15.70
2023-09-12T02:02:28.997Z,14.80
2023-09-12T02:05:05.157Z,15.50
2023-09-12T02:07:36.131Z,14.87
2023-09-12T02:10:05.576Z,15.07
2023-09-12T02:12:33.648Z,14.43
2023-09-12T02:15:01.594Z,14.20
2023-09-12T02:17:30.881Z,14.47
2023-09-12T02:19:58.894Z,14.57
2023-09-12T02:22:26.796Z,14.63
2023-09-12T02:24:54.613Z,14.57
2023-09-12T02:27:22.571Z,14.13
2023-09-12T02:29:50.403Z,14.33
2023-09-12T02:32:18.218Z,14.27
2023-09-12T02:34:47.401Z,13.87
2023-09-12T02:37:16.702Z,13.63
2023-09-12T02:39:44.602Z,14.13
2023-09-12T02:42:12.554Z,13.63
2023-09-12T02:44:40.421Z,13.47
2023-09-12T02:47:08.500Z,14.00
2023-09-12T02:49:36.546Z,13.97
2023-09-12T02:52:06.268Z,14.50
2023-09-12T02:54:34.129Z,14.40
2023-09-12T02:57:02.099Z,14.30
2023-09-12T02:59:29.940Z,14.33
2023-09-12T03:01:57.800Z,14.27
2023-09-12T03:04:27.717Z,14.10
2023-09-12T03:06:55.573Z,14.90
2023-09-12T03:09:25.373Z,14.23
2023-09-12T03:11:53.415Z,15.07
2023-09-12T03:14:21.317Z,15.23
2023-09-12T03:16:49.133Z,15.80
2023-09-12T03:19:17.016Z,14.27
2023-09-12T03:21:44.896Z,14.13
2023-09-12T03:24:12.791Z,14.77
2023-09-12T03:26:42.014Z,14.57
2023-09-12T03:29:09.822Z,14.20
2023-09-12T03:31:37.855Z,14.50
2023-09-12T03:34:05.777Z,14.47
2023-09-12T03:36:33.691Z,15.07
2023-09-12T03:39:01.749Z,14.10
2023-09-12T03:41:29.665Z,13.30
2023-09-12T03:43:58.880Z,14.70
2023-09-12T03:46:26.789Z,13.37
2023-09-12T03:48:54.814Z,14.17
2023-09-12T03:51:22.826Z,13.80
2023-09-12T03:53:51.144Z,13.87
2023-09-12T03:56:21.144Z,13.43
2023-09-12T03:58:49.155Z,13.20
2023-09-12T04:01:18.406Z,13.00
2023-09-12T04:03:48.939Z,13.30
2023-09-12T04:06:17.201Z,12.97
2023-09-12T04:08:45.265Z,13.23
2023-09-12T04:11:13.470Z,13.23
2023-09-12T04:13:41.295Z,13.27
2023-09-12T04:16:09.342Z,13.13
2023-09-12T04:18:39.046Z,13.03
2023-09-12T04:21:06.928Z,12.60
2023-09-12T04:23:34.788Z,12.40
2023-09-12T04:26:04.493Z,12.37
2023-09-12T04:28:32.378Z,11.93
2023-09-12T04:31:04.426Z,11.87
2023-09-12T04:33:32.338Z,12.17
2023-09-12T04:36:03.684Z,11.70
2023-09-12T04:38:31.976Z,11.30
2023-09-12T04:41:04.034Z,12.23
2023-09-12T04:43:31.877Z,12.53
2023-09-12T04:45:59.842Z,12.00
2023-09-12T04:48:27.893Z,11.90
2023-09-12T04:50:55.812Z,12.13
2023-09-12T04:53:25.149Z,11.43
2023-09-12T04:55:54.351Z,11.50
2023-09-12T04:58:22.224Z,11.27
2023-09-12T05:00:50.060Z,11.57
2023-09-12T05:03:17.978Z,11.73
2023-09-12T05:05:47.667Z,12.07
2023-09-12T05:08:15.579Z,10.83
2023-09-12T05:10:46.097Z,10.90
2023-09-12T05:13:13.919Z,11.30
2023-09-12T05:15:43.419Z,11.17
2023-09-12T05:18:12.033Z,11.00
2023-09-12T05:20:40.141Z,11.10
2023-09-12T05:23:08.025Z,10.83
2023-09-12T05:25:35.922Z,10.90
2023-09-12T05:28:05.887Z,11.20
2023-09-12T05:30:33.769Z,11.17
2023-09-12T05:33:01.758Z,10.60
2023-09-12T05:35:29.608Z,10.67
2023-09-12T05:37:57.444Z,10.37
2023-09-12T05:40:25.309Z,11.20
2023-09-12T05:42:53.341Z,11.63
2023-09-12T05:45:22.849Z,11.53
2023-09-12T05:47:51.776Z,11.47
2023-09-12T05:50:19.773Z,10.40
2023-09-12T05:52:47.598Z,11.00
2023-09-12T05:55:15.569Z,10.50
2023-09-12T05:57:43.483Z,10.40
2023-09-12T06:00:13.296Z,10.63
2023-09-12T06:02:43.697Z,11.00
2023-09-12T06:05:11.647Z,10.50
2023-09-12T06:07:42.261Z,10.70
2023-09-12T06:10:11.764Z,10.13
2023-09-12T06:12:39.658Z,10.23
2023-09-12T06:15:08.595Z,10.07
2023-09-12T06:17:36.695Z,9.90
2023-09-12T06:20:07.752Z,9.57
2023-09-12T06:22:37.114Z,10.13
2023-09-12T06:25:05.584Z,10.00
2023-09-12T06:27:33.474Z,10.17
2023-09-12T06:30:01.381Z,9.20
2023-09-12T06:32:29.285Z,10.20
2023-09-12T06:34:57.176Z,9.63
2023-09-12T06:37:26.454Z,10.40
2023-09-12T06:39:54.395Z,10.10
2023-09-12T06:42:22.328Z,10.23
2023-09-12T06:44:50.218Z,11.10
2023-09-12T06:47:18.092Z,11.00
2023-09-12T06:49:51.353Z,11.10
2023-09-12T06:52:20.774Z,10.47
2023-09-12T06:54:50.403Z,10.67
2023-09-12T06:57:18.375Z,10.57
2023-09-12T06:59:46.459Z,10.97
2023-09-12T07:02:14.626Z,10.70
2023-09-12T07:04:42.771Z,11.13
2023-09-12T07:07:10.619Z,11.33
2023-09-12T07:09:38.567Z,11.03
2023-09-12T07:12:08.723Z,11.40
2023-09-12T07:14:38.869Z,11.50
2023-09-12T07:17:08.224Z,11.47
2023-09-12T07:19:36.327Z,11.17
2023-09-12T07:22:04.387Z,11.73
2023-09-12T07:24:33.504Z,11.90
2023-09-12T07:27:01.573Z,11.37
2023-09-12T07:29:30.770Z,11.20
2023-09-12T07:32:01.067Z,12.13
2023-09-12T07:34:29.266Z,13.07
2023-09-12T07:36:57.082Z,12.73
2023-09-12T07:39:24.967Z,12.47
2023-09-12T07:41:52.809Z,13.40
2023-09-12T07:44:22.073Z,11.87
2023-09-12T07:46:51.349Z,12.13
2023-09-12T07:49:19.223Z,12.60
2023-09-12T07:51:47.162Z,12.03
2023-09-12T07:54:15.084Z,12.20
2023-09-12T07:56:43.098Z,12.30
2023-09-12T07:59:11.292Z,12.80
2023-09-12T08:01:39.743Z,12.97
2023-09-12T08:04:09.080Z,13.20
2023-09-12T08:06:48.064Z,12.27
2023-09-12T08:09:23.490Z,13.03
2023-09-12T08:11:51.399Z,13.57
2023-09-12T08:14:21.534Z,13.27
2023-09-12T08:16:49.531Z,13.50
2023-09-12T08:19:19.880Z,13.80
2023-09-12T08:21:48.033Z,14.03
2023-09-12T08:24:16.072Z,13.67
2023-09-12T08:26:43.911Z,13.20
2023-09-12T08:29:11.730Z,13.13
2023-09-12T08:31:39.664Z,13.83
2023-09-12T08:34:07.574Z,13.53
2023-09-12T08:36:37.337Z,12.77
2023-09-12T08:39:06.300Z,12.77
2023-09-12T08:41:34.990Z,12.20
2023-09-12T08:44:03.256Z,12.27
2023-09-12T08:46:31.222Z,12.30
2023-09-12T08:48:59.547Z,12.53
2023-09-12T08:51:27.502Z,12.17
2023-09-12T08:53:56.705Z,11.70
2023-09-12T08:56:25.720Z,11.53
2023-09-12T08:58:53.868Z,11.30
2023-09-12T09:01:22.206Z,11.83
2023-09-12T09:03:50.620Z,11.73
2023-09-12T09:06:18.806Z,11.23
2023-09-12T09:08:47.122Z,11.20
2023-09-12T09:11:16.469Z,10.97
2023-09-12T09:13:44.720Z,10.43
2023-09-12T09:16:14.150Z,10.30
2023-09-12T09:18:55.618Z,10.03
2023-09-12T09:21:25.630Z,9.47
2023-09-12T09:23:54.141Z,9.33
2023-09-12T09:26:24.972Z,8.33
2023-09-12T09:29:06.443Z,8.43
2023-09-12T09:31:35.368Z,8.40
2023-09-12T09:34:05.311Z,8.40
2023-09-12T09:36:34.540Z,9.07
2023-09-12T09:39:05.918Z,8.57
2023-09-12T09:41:35.225Z,8.63
2023-09-12T09:44:05.420Z,9.07
2023-09-12T09:46:33.488Z,9.07
2023-09-12T09:49:01.427Z,9.53
2023-09-12T09:51:30.682Z,8.43
2023-09-12T09:53:59.542Z,9.80
2023-09-12T09:56:27.853Z,9.73
2023-09-12T09:58:57.866Z,10.87
2023-09-12T10:01:29.573Z,10.67
2023-09-12T10:04:00.697Z,9.67
2023-09-12T10:06:29.557Z,9.73
2023-09-12T10:08:58.392Z,9.87
2023-09-12T10:11:30.482Z,8.53
2023-09-12T10:14:02.467Z,8.50
2023-09-12T10:16:32.441Z,8.43
2023-09-12T10:19:02.297Z,8.40
2023-09-12T10:21:33.517Z,9.10
2023-09-12T10:24:02.245Z,8.40
2023-09-12T10:26:30.318Z,8.43
2023-09-12T10:29:00.327Z,8.10
2023-09-12T10:31:29.226Z,8.73
2023-09-12T10:33:57.223Z,8.37
2023-09-12T10:36:28.314Z,8.53
2023-09-12T10:38:57.418Z,8.37
2023-09-12T10:41:25.367Z,8.50
2023-09-12T10:43:55.210Z,9.03
2023-09-12T10:46:24.775Z,8.67
2023-09-12T10:48:54.247Z,9.20
2023-09-12T10:51:22.705Z,8.83
2023-09-12T10:53:51.445Z,8.43
2023-09-12T10:56:21.292Z,8.47
2023-09-12T10:59:15.942Z,8.07
2023-09-12T11:01:48.395Z,8.70
2023-09-12T11:04:35.848Z,8.50
2023-09-12T11:07:03.824Z,7.90
2023-09-12T11:09:31.883Z,8.47
2023-09-12T11:12:04.532Z,8.30
2023-09-12T11:14:33.358Z,8.23
2023-09-12T11:17:25.379Z,8.73
2023-09-12T11:19:54.406Z,8.30
2023-09-12T11:22:29.340Z,9.23
2023-09-12T11:24:58.321Z,8.43
2023-09-12T11:27:28.351Z,9.00
2023-09-12T11:30:05.887Z,9.30
2023-09-12T11:32:37.997Z,8.70
2023-09-12T11:35:08.245Z,8.80
2023-09-12T11:37:38.094Z,9.23
2023-09-12T11:40:18.552Z,8.70
2023-09-12T11:42:47.905Z,8.53
2023-09-12T11:45:16.193Z,8.43
2023-09-12T11:47:46.280Z,9.07
2023-09-12T11:50:28.305Z,8.83
2023-09-12T11:53:02.251Z,8.83
2023-09-12T11:55:33.283Z,8.33
2023-09-12T11:58:01.195Z,7.93
2023-09-12T12:00:29.678Z,8.23
2023-09-12T12:03:00.070Z,8.20
2023-09-12T12:05:28.365Z,8.30
2023-09-12T12:08:07.055Z,9.20
2023-09-12T12:10:44.523Z,8.10
2023-09-12T12:13:13.631Z,8.60
2023-09-12T12:15:41.582Z,8.20
2023-09-12T12:18:11.473Z,8.00
2023-09-12T12:20:39.563Z,7.90
2023-09-12T12:23:07.549Z,8.00
2023-09-12T12:25:36.262Z,8.27
2023-09-12T12:28:05.258Z,7.73
2023-09-12T12:30:34.481Z,7.47
2023-09-12T12:33:25.322Z,7.50
2023-09-12T12:36:01.862Z,7.87
2023-09-12T12:38:29.967Z,7.70
2023-09-12T12:40:58.228Z,7.93
2023-09-12T12:43:26.191Z,7.70
2023-09-12T12:45:56.680Z,8.00
2023-09-12T12:48:34.383Z,8.03
2023-09-12T12:51:17.552Z,7.50
2023-09-12T12:53:52.994Z,8.10
2023-09-12T12:56:23.827Z,7.97
2023-09-12T12:58:53.500Z,7.80
2023-09-12T13:01:21.460Z,8.40
2023-09-12T13:03:51.282Z,7.50
2023-09-12T13:06:21.330Z,7.23
2023-09-12T13:08:51.068Z,7.70
2023-09-12T13:11:19.338Z,7.17
2023-09-12T13:13:47.769Z,7.23
2023-09-12T13:16:16.518Z,7.40
2023-09-12T13:18:44.734Z,7.20
2023-09-12T13:21:12.797Z,7.50
2023-09-12T13:23:42.504Z,7.53
2023-09-12T13:26:11.505Z,7.13
2023-09-12T13:28:39.751Z,7.07
2023-09-12T13:31:08.120Z,7.40
2023-09-12T13:33:36.265Z,7.43
2023-09-12T13:36:04.709Z,7.67
2023-09-12T13:38:32.626Z,7.40
2023-09-12T13:41:01.876Z,7.60
2023-09-12T13:43:30.405Z,7.07
2023-09-12T13:45:58.536Z,7.07
2023-09-12T13:48:27.206Z,7.30
2023-09-12T13:50:56.365Z,7.47
2023-09-12T13:53:24.264Z,7.23
2023-09-12T13:56:14.059Z,7.57
2023-09-12T13:58:45.269Z,7.00
2023-09-12T14:01:22.001Z,7.00
2023-09-12T14:03:54.877Z,7.17
2023-09-12T14:06:23.549Z,6.97
2023-09-12T14:08:51.537Z,7.30
2023-09-12T14:11:28.456Z,6.90
2023-09-12T14:14:13.610Z,6.67
2023-09-12T14:16:45.838Z,6.33
2023-09-12T14:19:16.976Z,6.47
2023-09-12T14:21:47.284Z,7.07
2023-09-12T14:24:16.793Z,6.47
2023-09-12T14:26:45.942Z,6.63
2023-09-12T14:29:15.542Z,6.23
2023-09-12T14:31:51.571Z,6.77
2023-09-12T14:34:19.753Z,6.87
2023-09-12T14:36:48.913Z,6.40
2023-09-12T14:39:17.197Z,6.40
2023-09-12T14:41:50.878Z,6.53
2023-09-12T14:44:20.281Z,6.10
2023-09-12T14:46:48.267Z,6.60
2023-09-12T14:49:16.333Z,5.70
2023-09-12T14:51:44.261Z,5.60
2023-09-12T14:54:12.471Z,5.90
2023-09-12T14:56:40.338Z,6.20
2023-09-12T14:59:08.255Z,6.40
2023-09-12T15:01:37.544Z,6.40
2023-09-12T15:04:05.976Z,6.40
2023-09-12T15:06:34.588Z,6.03
2023-09-12T15:09:02.984Z,6.30
2023-09-12T15:11:32.418Z,5.90
2023-09-12T15:14:00.435Z,6.20
2023-09-12T15:16:28.781Z,6.23
2023-09-12T15:18:58.120Z,5.90
2023-09-12T15:21:26.152Z,6.30
2023-09-12T15:23:55.215Z,6.00
2023-09-12T15:26:24.559Z,6.13
2023-09-12T15:28:52.513Z,6.33
2023-09-12T15:31:20.732Z,5.80
2023-09-12T15:33:49.933Z,6.00
2023-09-12T15:36:19.188Z,5.93
2023-09-12T15:38:46.999Z,6.40
2023-09-12T15:41:14.963Z,6.00
2023-09-12T15:43:43.634Z,5.73
2023-09-12T15:46:19.053Z,6.10
2023-09-12T15:48:56.089Z,5.80
2023-09-12T15:51:25.771Z,6.30
2023-09-12T15:53:53.802Z,5.40
2023-09-12T15:56:21.681Z,5.83
2023-09-12T15:58:49.656Z,5.80
2023-09-12T16:01:17.591Z,6.00
2023-09-12T16:03:45.740Z,6.10
2023-09-12T16:06:13.973Z,5.80
2023-09-12T16:08:43.158Z,5.60
2023-09-12T16:11:11.029Z,5.47
2023-09-12T16:13:38.988Z,5.93
2023-09-12T16:16:07.277Z,5.60
2023-09-12T16:18:36.101Z,6.07
2023-09-12T16:21:03.969Z,6.33
2023-09-12T16:23:32.520Z,6.53
2023-09-12T16:26:03.020Z,6.53
2023-09-12T16:28:30.993Z,7.00
2023-09-12T16:30:58.910Z,6.70
2023-09-12T16:33:26.967Z,6.90
2023-09-12T16:35:55.237Z,6.83
2023-09-12T16:38:23.104Z,6.70
2023-09-12T16:40:51.006Z,6.43
2023-09-12T16:43:20.284Z,7.10
2023-09-12T16:45:48.193Z,6.70
2023-09-12T16:48:16.124Z,6.83
2023-09-12T16:50:43.975Z,7.23
2023-09-12T16:53:11.825Z,7.37
2023-09-12T16:55:39.796Z,7.27
2023-09-12T16:58:07.717Z,6.80
2023-09-12T17:00:37.008Z,7.63
2023-09-12T17:03:05.518Z,7.97
2023-09-12T17:05:33.573Z,7.57
2023-09-12T17:08:01.956Z,7.53
2023-09-12T17:10:31.279Z,7.17
2023-09-12T17:12:59.143Z,7.43
2023-09-12T17:15:27.273Z,6.97
2023-09-12T17:17:56.674Z,7.53
2023-09-12T17:20:24.615Z,7.30
2023-09-12T17:22:52.616Z,7.27
2023-09-12T17:25:20.585Z,7.27
2023-09-12T17:27:49.991Z,7.50
2023-09-12T17:30:19.614Z,7.27
2023-09-12T17:32:47.636Z,7.70
2023-09-12T17:35:20.013Z,7.43
2023-09-12T17:37:47.890Z,7.37
2023-09-12T17:40:15.752Z,7.73
2023-09-12T17:42:43.729Z,7.90
2023-09-12T17:45:12.289Z,6.93
2023-09-12T17:47:42.832Z,7.63
2023-09-12T17:50:11.838Z,7.00
2023-09-12T17:52:41.048Z,7.60
2023-09-12T17:55:11.557Z,7.43
2023-09-12T17:57:39.540Z,7.83
2023-09-12T18:00:09.308Z,7.90
2023-09-12T18:02:37.382Z,7.93
2023-09-12T18:05:05.840Z,7.40
2023-09-12T18:07:33.671Z,7.87
2023-09-12T18:10:03.773Z,8.23
2023-09-12T18:12:31.686Z,7.60
2023-09-12T18:15:00.668Z,7.70
2023-09-12T18:17:28.655Z,7.67
2023-09-12T18:19:56.532Z,7.90
2023-09-12T18:22:25.182Z,7.80
2023-09-12T18:24:53.066Z,7.30
2023-09-12T18:27:22.302Z,8.60
2023-09-12T18:29:50.143Z,7.93
2023-09-12T18:32:18.198Z,8.30
2023-09-12T18:34:46.065Z,8.20
2023-09-12T18:37:14.770Z,7.93
2023-09-12T18:39:44.034Z,8.17
2023-09-12T18:42:12.230Z,8.23
2023-09-12T18:44:41.480Z,8.07
2023-09-12T18:47:09.631Z,8.10
2023-09-12T18:49:37.584Z,7.97
2023-09-12T18:52:05.880Z,7.90
2023-09-12T18:54:34.720Z,7.83
2023-09-12T18:57:10.829Z,8.00
2023-09-12T18:59:38.768Z,7.67
2023-09-12T19:02:08.410Z,8.07
2023-09-12T19:04:38.835Z,8.30
2023-09-12T19:07:07.140Z,7.87
2023-09-12T19:09:35.142Z,8.00
2023-09-12T19:12:04.954Z,8.83
2023-09-12T19:14:32.936Z,7.77
2023-09-12T19:17:01.274Z,7.93
2023-09-12T19:19:30.496Z,7.93
2023-09-12T19:21:59.202Z,8.30
2023-09-12T19:24:27.092Z,8.47
2023-09-12T19:26:55.003Z,8.50
2023-09-12T19:29:23.377Z,8.50
2023-09-12T19:31:51.673Z,8.40
2023-09-12T19:34:19.638Z,8.00
2023-09-12T19:36:48.925Z,8.50
2023-09-12T19:39:16.836Z,9.00
2023-09-12T19:41:44.732Z,8.27
2023-09-12T19:44:12.464Z,8.80
2023-09-12T19:46:41.615Z,8.57
2023-09-12T19:49:10.475Z,9.40
2023-09-12T19:51:38.600Z,8.47
2023-09-12T19:54:09.028Z,8.27
2023-09-12T19:56:36.913Z,9.17
2023-09-12T19:59:04.894Z,8.37
2023-09-12T20:01:32.903Z,9.57
2023-09-12T20:04:01.334Z,9.30
2023-09-12T20:06:29.298Z,9.23
2023-09-12T20:08:57.316Z,8.93
2023-09-12T20:11:28.904Z,9.33
2023-09-12T20:13:56.812Z,9.17
2023-09-12T20:16:24.740Z,8.77
2023-09-12T20:18:52.815Z,8.23
2023-09-12T20:21:20.740Z,8.90
2023-09-12T20:23:48.950Z,8.93
2023-09-12T20:26:16.857Z,8.97
2023-09-12T20:28:46.100Z,9.00
2023-09-12T20:31:14.094Z,9.13
2023-09-12T20:33:42.439Z,9.80
2023-09-12T20:36:10.652Z,9.00
2023-09-12T20:38:45.467Z,9.67
2023-09-12T20:41:13.287Z,9.83
2023-09-12T20:43:41.471Z,9.37
2023-09-12T20:46:11.570Z,11.23
2023-09-12T20:48:39.971Z,11.93
2023-09-12T20:51:11.007Z,12.17
2023-09-12T20:53:39.376Z,13.43
2023-09-12T20:56:07.393Z,13.33
2023-09-12T20:58:36.833Z,14.47
2023-09-12T21:01:04.933Z,13.83
2023-09-12T21:03:34.522Z,14.17
2023-09-12T21:06:02.643Z,13.77
2023-09-12T21:08:32.637Z,14.20
2023-09-12T21:11:00.520Z,13.23
2023-09-12T21:13:28.341Z,12.77
2023-09-12T21:15:56.330Z,12.77
2023-09-12T21:18:24.250Z,12.83
2023-09-12T21:20:54.865Z,13.63
2023-09-12T21:23:22.787Z,12.73
2023-09-12T21:25:51.460Z,13.20
2023-09-12T21:28:19.953Z,12.53
2023-09-12T21:30:50.535Z,13.83
2023-09-12T21:33:18.610Z,13.37
2023-09-12T21:35:46.540Z,14.13
2023-09-12T21:38:16.051Z,13.43
2023-09-12T21:40:43.871Z,13.33
2023-09-12T21:43:13.684Z,13.87
2023-09-12T21:45:42.002Z,13.13
2023-09-12T21:48:09.998Z,13.73
2023-09-12T21:50:38.044Z,12.93
2023-09-12T21:53:06.135Z,12.60
2023-09-12T21:55:36.558Z,13.27
2023-09-12T21:58:05.034Z,13.80
2023-09-12T22:00:35.659Z,14.70
2023-09-12T22:03:04.985Z,13.57
2023-09-12T22:05:33.638Z,13.90
2023-09-12T22:08:01.529Z,14.10
2023-09-12T22:10:29.425Z,13.80
2023-09-12T22:12:58.796Z,13.80
2023-09-12T22:15:26.656Z,14.27
2023-09-12T22:17:54.779Z,13.40
2023-09-12T22:20:22.682Z,13.60
2023-09-12T22:22:50.492Z,13.53
2023-09-12T22:25:18.477Z,13.73
2023-09-12T22:27:46.409Z,13.43
2023-09-12T22:30:16.998Z,13.30
2023-09-12T22:32:45.322Z,13.50
2023-09-12T22:35:13.356Z,13.00
2023-09-12T22:37:41.609Z,13.10
2023-09-12T22:40:10.768Z,14.10
2023-09-12T22:42:40.079Z,13.60
2023-09-12T22:45:09.985Z,14.00
2023-09-12T22:47:40.257Z,13.93
2023-09-12T22:50:09.440Z,14.60
2023-09-12T22:52:37.981Z,14.67
2023-09-12T22:55:06.607Z,14.23
2023-09-12T22:57:34.725Z,14.57
2023-09-12T23:00:02.601Z,13.77
2023-09-12T23:02:30.412Z,13.70
2023-09-12T23:04:59.876Z,14.70
2023-09-12T23:07:27.953Z,13.73
2023-09-12T23:09:55.940Z,13.43
2023-09-12T23:12:24.010Z,14.40
2023-09-12T23:14:55.332Z,14.13
2023-09-12T23:17:24.210Z,13.93
2023-09-12T23:19:52.217Z,14.23
2023-09-12T23:22:21.676Z,14.30
2023-09-12T23:24:49.557Z,13.50
2023-09-12T23:27:17.593Z,14.00
2023-09-12T23:29:46.067Z,14.87
2023-09-12T23:32:13.949Z,14.20
2023-09-12T23:34:41.825Z,13.33
2023-09-12T23:37:10.937Z,14.03
2023-09-12T23:39:40.187Z,13.97
2023-09-12T23:42:08.204Z,13.77
2023-09-12T23:44:36.164Z,14.67
2023-09-12T23:47:04.111Z,14.07
2023-09-12T23:49:32.028Z,14.43
2023-09-12T23:52:00.022Z,13.87
2023-09-12T23:54:28.066Z,14.50
2023-09-12T23:56:57.363Z,15.03
2023-09-12T23:59:25.366Z,14.63
